createdAt,value
2022-10-30T00:01:35.736Z,98445.94
2022-10-30T00:04:02.110Z,98435.81
2022-10-30T00:06:28.439Z,98443.56
2022-10-30T00:08:54.791Z,98444.22
2022-10-30T00:11:21.313Z,98451.34
2022-10-30T00:13:47.706Z,98450.78
2022-10-30T00:16:14.029Z,98447.59
2022-10-30T00:18:42.210Z,98443.50
2022-10-30T00:21:13.027Z,98436.63
2022-10-30T00:23:39.646Z,98439.06
2022-10-30T00:26:06.492Z,98441.31
2022-10-30T00:28:32.835Z,98440.16
2022-10-30T00:31:02.489Z,98447.59
2022-10-30T00:33:28.862Z,98451.56
2022-10-30T00:35:55.221Z,98454.00
2022-10-30T00:38:21.554Z,98461.06
2022-10-30T00:40:47.907Z,98450.78
2022-10-30T00:43:27.473Z,98455.47
2022-10-30T00:45:53.799Z,98445.97
2022-10-30T00:48:20.196Z,98446.75
2022-10-30T00:50:48.007Z,98437.25
2022-10-30T00:53:14.966Z,98437.72
2022-10-30T00:55:42.390Z,98437.19
2022-10-30T00:58:09.522Z,98435.25
2022-10-30T01:00:35.865Z,98437.56
2022-10-30T01:03:02.186Z,98435.56
2022-10-30T01:05:28.862Z,98442.34
2022-10-30T01:07:55.360Z,98438.84
2022-10-30T01:10:21.847Z,98432.28
2022-10-30T01:12:48.198Z,98434.69
2022-10-30T01:15:14.530Z,98435.00
2022-10-30T01:17:50.016Z,98436.06
2022-10-30T01:20:19.375Z,98441.84
2022-10-30T01:22:48.682Z,98436.56
2022-10-30T01:25:21.267Z,98433.88
2022-10-30T01:27:53.466Z,98440.59
2022-10-30T01:30:19.765Z,98434.16
2022-10-30T01:32:46.073Z,98445.16
2022-10-30T01:35:15.426Z,98447.38
2022-10-30T01:38:00.900Z,98425.69
2022-10-30T01:40:27.479Z,98429.94
2022-10-30T01:42:54.580Z,98427.94
2022-10-30T01:45:47.183Z,98428.94
2022-10-30T01:48:32.062Z,98429.03
2022-10-30T01:51:07.693Z,98422.81
2022-10-30T01:53:37.166Z,98432.09
2022-10-30T01:56:03.671Z,98433.56
2022-10-30T01:58:31.678Z,98428.81
2022-10-30T02:00:58.718Z,98432.09
2022-10-30T02:03:25.917Z,98437.53
2022-10-30T02:05:52.544Z,98445.06
2022-10-30T02:08:19.308Z,98435.44
2022-10-30T02:10:46.223Z,98439.41
2022-10-30T02:13:12.550Z,98439.28
2022-10-30T02:15:38.911Z,98436.94
2022-10-30T02:18:05.327Z,98438.22
2022-10-30T02:20:32.156Z,98433.00
2022-10-30T02:22:59.536Z,98440.88
2022-10-30T02:25:26.402Z,98442.34
2022-10-30T02:27:52.754Z,98431.03
2022-10-30T02:30:19.088Z,98433.28
2022-10-30T02:32:45.462Z,98440.38
2022-10-30T02:35:11.842Z,98446.34
2022-10-30T02:37:39.532Z,98434.88
2022-10-30T02:40:08.158Z,98436.03
2022-10-30T02:42:34.793Z,98445.13
2022-10-30T02:45:01.138Z,98432.69
2022-10-30T02:47:28.659Z,98437.09
2022-10-30T02:49:54.995Z,98435.47
2022-10-30T02:52:21.312Z,98437.25
2022-10-30T02:54:47.655Z,98434.13
2022-10-30T02:57:14.007Z,98433.09
2022-10-30T02:59:40.356Z,98435.75
2022-10-30T03:02:06.719Z,98440.31
2022-10-30T03:04:33.113Z,98442.94
2022-10-30T03:06:59.431Z,98438.31
2022-10-30T03:09:25.803Z,98435.00
2022-10-30T03:11:52.193Z,98432.25
2022-10-30T03:14:18.536Z,98429.72
2022-10-30T03:16:44.857Z,98425.19
2022-10-30T03:19:11.177Z,98434.25
2022-10-30T03:21:37.510Z,98439.41
2022-10-30T03:24:03.958Z,98438.22
2022-10-30T03:26:30.283Z,98429.72
2022-10-30T03:28:56.676Z,98431.59
2022-10-30T03:31:23.019Z,98433.59
2022-10-30T03:33:49.358Z,98440.03
2022-10-30T03:36:15.869Z,98442.06
2022-10-30T03:38:42.255Z,98440.22
2022-10-30T03:41:08.614Z,98439.69
2022-10-30T03:43:34.984Z,98445.50
2022-10-30T03:46:01.422Z,98440.09
2022-10-30T03:48:28.061Z,98448.06
2022-10-30T03:50:54.657Z,98444.94
2022-10-30T03:53:20.987Z,98441.25
2022-10-30T03:55:47.333Z,98438.44
2022-10-30T03:58:13.657Z,98440.16
2022-10-30T04:00:40.027Z,98441.84
2022-10-30T04:03:06.757Z,98440.91
2022-10-30T04:05:33.084Z,98443.03
2022-10-30T04:08:00.383Z,98444.63
2022-10-30T04:10:26.792Z,98445.25
2022-10-30T04:12:54.739Z,98438.19
2022-10-30T04:15:21.346Z,98442.53
2022-10-30T04:17:51.244Z,98443.78
2022-10-30T04:20:22.956Z,98441.41
2022-10-30T04:22:49.297Z,98437.81
2022-10-30T04:25:15.639Z,98439.03
2022-10-30T04:27:42.668Z,98428.19
2022-10-30T04:30:12.164Z,98424.78
2022-10-30T04:33:10.787Z,98421.88
2022-10-30T04:35:37.235Z,98425.53
2022-10-30T04:38:07.405Z,98433.91
2022-10-30T04:40:34.401Z,98433.50
2022-10-30T04:43:01.240Z,98437.00
2022-10-30T04:45:27.726Z,98439.97
2022-10-30T04:47:55.667Z,98442.72
2022-10-30T04:50:22.216Z,98447.91
2022-10-30T04:52:48.542Z,98448.69
2022-10-30T04:55:15.014Z,98437.28
2022-10-30T04:57:41.430Z,98440.66
2022-10-30T05:00:08.116Z,98427.94
2022-10-30T05:02:35.400Z,98429.84
2022-10-30T05:05:01.893Z,98435.56
2022-10-30T05:07:28.202Z,98441.13
2022-10-30T05:09:54.567Z,98435.19
2022-10-30T05:12:22.198Z,98440.25
2022-10-30T05:14:48.538Z,98440.09
2022-10-30T05:17:14.855Z,98430.91
2022-10-30T05:19:41.176Z,98418.84
2022-10-30T05:22:07.541Z,98427.06
2022-10-30T05:24:33.944Z,98423.97
2022-10-30T05:27:00.282Z,98421.72
2022-10-30T05:29:26.606Z,98434.75
2022-10-30T05:31:52.926Z,98412.84
2022-10-30T05:34:19.238Z,98424.91
2022-10-30T05:36:45.576Z,98423.47
2022-10-30T05:39:11.894Z,98422.19
2022-10-30T05:41:38.286Z,98417.91
2022-10-30T05:44:04.675Z,98424.00
2022-10-30T05:46:31.041Z,98425.78
2022-10-30T05:48:57.398Z,98428.81
2022-10-30T05:51:23.742Z,98424.06
2022-10-30T05:53:50.059Z,98435.72
2022-10-30T05:56:16.808Z,98425.50
2022-10-30T05:58:43.136Z,98426.81
2022-10-30T06:01:09.519Z,98431.69
2022-10-30T06:03:35.846Z,98432.25
2022-10-30T06:06:02.429Z,98440.88
2022-10-30T06:08:28.765Z,98446.63
2022-10-30T06:10:55.830Z,98447.91
2022-10-30T06:13:22.145Z,98451.84
2022-10-30T06:15:48.482Z,98453.47
2022-10-30T06:18:14.924Z,98455.97
2022-10-30T06:20:42.349Z,98458.88
2022-10-30T06:23:09.861Z,98457.41
2022-10-30T06:25:40.618Z,98458.88
2022-10-30T06:28:07.553Z,98456.97
2022-10-30T06:30:34.075Z,98460.06
2022-10-30T06:33:01.130Z,98469.06
2022-10-30T06:35:27.933Z,98475.47
2022-10-30T06:37:55.142Z,98472.00
2022-10-30T06:40:21.850Z,98481.06
2022-10-30T06:42:51.533Z,98485.06
2022-10-30T06:45:18.433Z,98476.34
2022-10-30T06:47:44.905Z,98477.75
2022-10-30T06:50:12.471Z,98479.19
2022-10-30T06:52:38.787Z,98483.00
2022-10-30T06:55:05.281Z,98486.72
2022-10-30T06:57:31.621Z,98481.50
2022-10-30T06:59:57.957Z,98487.59
2022-10-30T07:02:24.385Z,98483.56
2022-10-30T07:04:50.809Z,98485.19
2022-10-30T07:07:17.129Z,98475.59
2022-10-30T07:09:43.758Z,98470.31
2022-10-30T07:12:10.072Z,98478.19
2022-10-30T07:14:36.400Z,98480.91
2022-10-30T07:17:02.722Z,98479.06
2022-10-30T07:19:29.170Z,98475.69
2022-10-30T07:21:55.492Z,98476.84
2022-10-30T07:24:21.805Z,98473.38
2022-10-30T07:26:48.131Z,98479.84
2022-10-30T07:29:14.743Z,98480.03
2022-10-30T07:31:42.304Z,98483.38
2022-10-30T07:34:16.103Z,98480.34
2022-10-30T07:36:42.442Z,98473.50
2022-10-30T07:39:08.765Z,98473.47
2022-10-30T07:41:35.086Z,98472.38
2022-10-30T07:44:01.467Z,98471.31
2022-10-30T07:46:27.808Z,98467.84
2022-10-30T07:48:54.731Z,98475.50
2022-10-30T07:51:21.814Z,98474.41
2022-10-30T07:53:48.346Z,98481.78
2022-10-30T07:56:14.696Z,98467.81
2022-10-30T07:58:45.250Z,98472.59
2022-10-30T08:01:12.165Z,98469.91
2022-10-30T08:03:38.507Z,98470.75
2022-10-30T08:06:04.959Z,98464.00
2022-10-30T08:08:32.445Z,98466.50
2022-10-30T08:10:58.796Z,98474.66
2022-10-30T08:13:25.118Z,98474.00
2022-10-30T08:15:51.458Z,98465.22
2022-10-30T08:18:17.783Z,98480.91
2022-10-30T08:23:17.640Z,98481.75
2022-10-30T08:25:44.010Z,98481.03
2022-10-30T08:28:11.636Z,98485.91
2022-10-30T08:30:38.547Z,98480.78
2022-10-30T08:33:05.773Z,98472.44
2022-10-30T08:35:33.059Z,98478.16
2022-10-30T08:38:00.049Z,98481.41
2022-10-30T08:40:26.860Z,98490.28
2022-10-30T08:42:53.758Z,98489.53
2022-10-30T08:45:20.356Z,98493.09
2022-10-30T08:47:46.749Z,98493.09
2022-10-30T08:50:13.157Z,98480.69
2022-10-30T08:52:39.501Z,98485.59
2022-10-30T08:55:06.161Z,98491.56
2022-10-30T08:57:36.745Z,98489.16
2022-10-30T09:00:04.425Z,98480.38
2022-10-30T09:02:30.902Z,98489.25
2022-10-30T09:04:57.353Z,98485.34
2022-10-30T09:07:23.697Z,98482.53
2022-10-30T09:09:50.029Z,98494.56
2022-10-30T09:12:16.779Z,98496.56
2022-10-30T09:14:43.143Z,98496.19
2022-10-30T09:17:09.461Z,98496.19
2022-10-30T09:19:35.828Z,98488.97
2022-10-30T09:22:02.198Z,98486.56
2022-10-30T09:24:28.515Z,98487.00
2022-10-30T09:26:55.062Z,98484.56
2022-10-30T09:29:21.490Z,98488.59
2022-10-30T09:31:47.843Z,98485.78
2022-10-30T09:34:14.235Z,98489.78
2022-10-30T09:36:43.820Z,98484.97
2022-10-30T09:39:10.821Z,98487.78
2022-10-30T09:41:40.171Z,98492.19
2022-10-30T09:44:09.521Z,98492.22
2022-10-30T09:46:54.756Z,98490.59
2022-10-30T09:49:30.442Z,98494.59
2022-10-30T09:52:03.926Z,98502.63
2022-10-30T09:54:37.002Z,98501.84
2022-10-30T09:57:15.964Z,98495.44
2022-10-30T09:59:58.336Z,98496.25
2022-10-30T10:02:34.699Z,98502.25
2022-10-30T10:05:03.838Z,98495.03
2022-10-30T10:07:31.208Z,98490.59
2022-10-30T10:10:01.875Z,98490.56
2022-10-30T10:12:28.259Z,98489.75
2022-10-30T10:14:54.588Z,98481.66
2022-10-30T10:17:28.938Z,98486.09
2022-10-30T10:19:55.901Z,98484.06
2022-10-30T10:22:23.964Z,98470.41
2022-10-30T10:24:50.281Z,98481.25
2022-10-30T10:27:16.593Z,98483.22
2022-10-30T10:29:58.198Z,98477.56
2022-10-30T10:32:27.995Z,98474.28
2022-10-30T10:35:03.607Z,98473.41
2022-10-30T10:37:38.972Z,98465.66
2022-10-30T10:40:22.494Z,98470.44
2022-10-30T10:43:07.224Z,98467.81
2022-10-30T10:45:37.489Z,98463.34
2022-10-30T10:48:07.489Z,98464.00
2022-10-30T10:50:46.633Z,98463.50
2022-10-30T10:53:22.302Z,98452.63
2022-10-30T10:55:49.787Z,98451.38
2022-10-30T10:58:21.012Z,98460.47
2022-10-30T11:00:47.402Z,98457.91
2022-10-30T11:03:14.559Z,98456.78
2022-10-30T11:05:46.576Z,98457.53
2022-10-30T11:08:19.116Z,98450.91
2022-10-30T11:10:53.914Z,98448.19
2022-10-30T11:13:20.243Z,98434.66
2022-10-30T11:15:55.814Z,98439.13
2022-10-30T11:18:22.467Z,98434.97
2022-10-30T11:20:57.960Z,98430.44
2022-10-30T11:23:40.616Z,98438.47
2022-10-30T11:26:19.198Z,98435.78
2022-10-30T11:28:48.518Z,98446.94
2022-10-30T11:31:20.953Z,98437.09
2022-10-30T11:33:47.508Z,98432.31
2022-10-30T11:36:17.779Z,98426.38
2022-10-30T11:38:44.181Z,98414.19
2022-10-30T11:41:10.505Z,98408.13
2022-10-30T11:43:36.816Z,98413.53
2022-10-30T11:46:06.889Z,98413.16
2022-10-30T11:48:33.259Z,98419.94
2022-10-30T11:51:00.562Z,98421.69
2022-10-30T11:53:36.479Z,98413.72
2022-10-30T11:56:02.818Z,98420.34
2022-10-30T11:58:33.021Z,98418.63
2022-10-30T12:01:06.112Z,98413.03
2022-10-30T12:03:36.998Z,98403.97
2022-10-30T12:06:07.152Z,98402.03
2022-10-30T12:08:33.477Z,98393.44
2022-10-30T12:11:00.441Z,98397.97
2022-10-30T12:13:26.778Z,98398.91
2022-10-30T12:16:09.794Z,98383.47
2022-10-30T12:18:36.113Z,98396.56
2022-10-30T12:21:02.480Z,98385.63
2022-10-30T12:23:28.864Z,98377.81
2022-10-30T12:25:59.318Z,98377.63
2022-10-30T12:28:26.426Z,98386.69
2022-10-30T12:30:54.554Z,98385.75
2022-10-30T12:33:22.437Z,98388.03
2022-10-30T12:35:48.738Z,98377.09
2022-10-30T12:38:35.319Z,98372.94
2022-10-30T12:41:34.154Z,98368.28
2022-10-30T12:44:20.638Z,98391.44
2022-10-30T12:46:48.843Z,98385.03
2022-10-30T12:49:36.012Z,98391.94
2022-10-30T12:52:07.495Z,98402.84
2022-10-30T12:54:42.969Z,98387.56
2022-10-30T12:57:13.751Z,98385.25
2022-10-30T12:59:43.183Z,98387.38
2022-10-30T13:02:12.494Z,98385.81
2022-10-30T13:04:43.343Z,98381.25
2022-10-30T13:07:21.932Z,98385.81
2022-10-30T13:09:49.819Z,98383.94
2022-10-30T13:12:20.512Z,98386.09
2022-10-30T13:14:46.836Z,98381.81
2022-10-30T13:17:13.162Z,98384.66
2022-10-30T13:19:40.706Z,98381.59
2022-10-30T13:22:13.180Z,98381.63
2022-10-30T13:24:45.671Z,98380.97
2022-10-30T13:27:26.453Z,98385.41
2022-10-30T13:30:03.426Z,98386.97
2022-10-30T13:32:35.657Z,98388.16
2022-10-30T13:35:09.901Z,98386.22
2022-10-30T13:37:39.290Z,98385.84
2022-10-30T13:40:14.580Z,98380.31
2022-10-30T13:42:50.722Z,98385.59
2022-10-30T13:45:30.376Z,98376.44
2022-10-30T13:48:07.378Z,98372.84
2022-10-30T13:50:39.274Z,98379.25
2022-10-30T13:53:05.987Z,98376.13
2022-10-30T13:55:33.004Z,98376.50
2022-10-30T13:57:59.289Z,98372.50
2022-10-30T14:00:44.383Z,98371.28
2022-10-30T14:03:12.654Z,98375.34
2022-10-30T14:05:47.163Z,98373.72
2022-10-30T14:08:27.122Z,98362.91
2022-10-30T14:10:57.540Z,98368.94
2022-10-30T14:13:27.343Z,98363.31
2022-10-30T14:16:16.946Z,98365.78
2022-10-30T14:18:44.512Z,98361.78
2022-10-30T14:21:29.777Z,98363.81
2022-10-30T14:24:22.205Z,98367.88
2022-10-30T14:26:52.663Z,98364.59
2022-10-30T14:29:37.468Z,98370.59
2022-10-30T14:32:16.082Z,98365.34
2022-10-30T14:34:46.086Z,98367.38
2022-10-30T14:37:12.690Z,98366.19
2022-10-30T14:39:39.559Z,98361.38
2022-10-30T14:42:08.202Z,98367.81
2022-10-30T14:44:34.506Z,98362.97
2022-10-30T14:47:01.990Z,98367.38
2022-10-30T14:49:45.189Z,98359.75
2022-10-30T14:52:32.142Z,98361.88
2022-10-30T14:55:04.564Z,98360.69
2022-10-30T14:57:43.076Z,98360.34
2022-10-30T15:00:25.713Z,98365.19
2022-10-30T15:03:04.409Z,98371.63
2022-10-30T15:05:36.731Z,98370.06
2022-10-30T15:08:21.046Z,98366.84
2022-10-30T15:10:51.855Z,98360.44
2022-10-30T15:13:21.515Z,98363.69
2022-10-30T15:15:58.032Z,98367.72
2022-10-30T15:18:27.998Z,98359.28
2022-10-30T15:20:58.041Z,98362.50
2022-10-30T15:23:25.186Z,98355.25
2022-10-30T15:25:52.656Z,98355.28
2022-10-30T15:28:20.540Z,98354.88
2022-10-30T15:31:00.184Z,98355.69
2022-10-30T15:33:26.536Z,98361.31
2022-10-30T15:35:52.918Z,98361.75
2022-10-30T15:38:19.237Z,98356.97
2022-10-30T15:40:45.557Z,98363.38
2022-10-30T15:43:12.635Z,98372.59
2022-10-30T15:45:45.795Z,98367.75
2022-10-30T15:48:15.186Z,98364.16
2022-10-30T15:50:42.952Z,98370.94
2022-10-30T15:53:17.151Z,98374.47
2022-10-30T15:55:43.541Z,98365.63
2022-10-30T15:58:11.884Z,98373.63
2022-10-30T16:00:38.461Z,98372.41
2022-10-30T16:03:04.873Z,98378.69
2022-10-30T16:05:31.412Z,98371.91
2022-10-30T16:07:58.371Z,98366.25
2022-10-30T16:10:26.699Z,98371.56
2022-10-30T16:12:55.546Z,98367.56
2022-10-30T16:15:29.138Z,98372.28
2022-10-30T16:18:14.392Z,98372.38
2022-10-30T16:20:41.170Z,98371.13
2022-10-30T16:23:07.493Z,98372.28
2022-10-30T16:25:37.274Z,98380.69
2022-10-30T16:28:04.541Z,98379.47
2022-10-30T16:30:32.078Z,98378.56
2022-10-30T16:32:58.779Z,98376.19
2022-10-30T16:35:25.500Z,98383.72
2022-10-30T16:37:51.827Z,98370.50
2022-10-30T16:40:19.985Z,98374.94
2022-10-30T16:42:46.872Z,98376.97
2022-10-30T16:45:13.182Z,98385.34
2022-10-30T16:47:39.874Z,98383.34
2022-10-30T16:50:06.482Z,98385.31
2022-10-30T16:52:35.983Z,98374.03
2022-10-30T16:55:04.562Z,98382.44
2022-10-30T16:57:37.493Z,98382.38
2022-10-30T17:00:04.261Z,98387.88
2022-10-30T17:02:32.162Z,98380.75
2022-10-30T17:05:03.997Z,98391.59
2022-10-30T17:07:30.327Z,98385.34
2022-10-30T17:09:57.228Z,98394.88
2022-10-30T17:12:27.553Z,98399.22
2022-10-30T17:14:56.942Z,98411.06
2022-10-30T17:17:28.341Z,98408.19
2022-10-30T17:20:05.310Z,98406.94
2022-10-30T17:22:31.848Z,98409.25
2022-10-30T17:24:58.624Z,98404.63
2022-10-30T17:27:29.227Z,98410.53
2022-10-30T17:29:55.950Z,98411.41
2022-10-30T17:32:23.193Z,98418.78
2022-10-30T17:34:57.736Z,98423.22
2022-10-30T17:37:26.545Z,98428.31
2022-10-30T17:39:52.972Z,98431.59
2022-10-30T17:42:19.292Z,98427.69
2022-10-30T17:44:46.538Z,98433.91
2022-10-30T17:47:14.385Z,98435.41
2022-10-30T17:49:40.718Z,98436.78
2022-10-30T17:52:07.038Z,98439.28
2022-10-30T17:54:33.437Z,98444.56
2022-10-30T17:57:00.991Z,98456.72
2022-10-30T17:59:27.368Z,98458.34
2022-10-30T18:01:53.836Z,98461.44
2022-10-30T18:04:21.505Z,98465.66
2022-10-30T18:06:48.034Z,98471.31
2022-10-30T18:09:14.479Z,98461.50
2022-10-30T18:11:40.797Z,98470.03
2022-10-30T18:14:07.245Z,98484.41
2022-10-30T18:16:33.594Z,98469.88
2022-10-30T18:18:59.904Z,98465.97
2022-10-30T18:21:27.501Z,98475.53
2022-10-30T18:23:54.173Z,98478.16
2022-10-30T18:26:21.503Z,98481.28
2022-10-30T18:28:47.897Z,98482.94
2022-10-30T18:31:14.988Z,98478.06
2022-10-30T18:33:41.512Z,98483.75
2022-10-30T18:36:26.032Z,98485.97
2022-10-30T18:38:52.763Z,98489.19
2022-10-30T18:41:32.086Z,98502.97
2022-10-30T18:43:58.396Z,98504.94
2022-10-30T18:46:24.740Z,98497.22
2022-10-30T18:48:51.072Z,98503.81
2022-10-30T18:51:20.988Z,98507.22
2022-10-30T18:53:53.521Z,98511.56
2022-10-30T18:56:23.428Z,98513.16
2022-10-30T18:58:50.380Z,98508.66
2022-10-30T19:01:18.871Z,98513.47
2022-10-30T19:03:45.396Z,98511.56
2022-10-30T19:06:15.668Z,98517.72
2022-10-30T19:08:41.983Z,98518.06
2022-10-30T19:11:10.062Z,98520.25
2022-10-30T19:13:36.385Z,98517.72
2022-10-30T19:16:02.796Z,98525.16
2022-10-30T19:18:31.147Z,98527.50
2022-10-30T19:21:04.414Z,98527.47
2022-10-30T19:23:31.960Z,98527.50
2022-10-30T19:25:58.323Z,98532.22
2022-10-30T19:28:25.905Z,98533.72
2022-10-30T19:30:54.507Z,98530.84
2022-10-30T19:33:21.300Z,98531.16
2022-10-30T19:36:07.913Z,98528.69
2022-10-30T19:38:34.282Z,98533.44
2022-10-30T19:41:00.711Z,98533.19
2022-10-30T19:43:27.048Z,98543.00
2022-10-30T19:45:55.637Z,98535.72
2022-10-30T19:48:40.657Z,98544.53
2022-10-30T19:51:11.408Z,98543.75
2022-10-30T19:53:38.034Z,98554.31
2022-10-30T19:56:04.479Z,98550.44
2022-10-30T19:58:30.834Z,98545.13
2022-10-30T20:00:57.226Z,98541.78
2022-10-30T20:03:23.588Z,98555.94
2022-10-30T20:05:50.468Z,98554.56
2022-10-30T20:08:17.720Z,98553.53
2022-10-30T20:10:47.957Z,98562.75
2022-10-30T20:13:14.366Z,98554.38
2022-10-30T20:15:41.097Z,98555.44
2022-10-30T20:18:11.930Z,98558.69
2022-10-30T20:20:38.317Z,98561.38
2022-10-30T20:23:04.657Z,98554.63
2022-10-30T20:25:30.974Z,98563.72
2022-10-30T20:28:04.109Z,98565.69
2022-10-30T20:30:33.256Z,98564.44
2022-10-30T20:33:00.030Z,98555.88
2022-10-30T20:35:26.592Z,98563.00
2022-10-30T20:37:59.638Z,98570.69
2022-10-30T20:40:25.962Z,98558.88
2022-10-30T20:42:54.017Z,98568.84
2022-10-30T20:45:23.202Z,98566.28
2022-10-30T20:47:49.710Z,98566.91
2022-10-30T20:50:16.077Z,98573.09
2022-10-30T20:52:42.499Z,98569.94
2022-10-30T20:55:09.227Z,98570.75
2022-10-30T21:00:07.586Z,98574.31
2022-10-30T21:02:33.990Z,98566.44
2022-10-30T21:05:11.499Z,98570.13
2022-10-30T21:07:47.176Z,98564.38
2022-10-30T21:10:13.508Z,98558.16
2022-10-30T21:12:39.911Z,98568.72
2022-10-30T21:15:06.418Z,98568.22
2022-10-30T21:17:32.784Z,98575.41
2022-10-30T21:19:59.117Z,98582.97
2022-10-30T21:22:25.453Z,98580.03
2022-10-30T21:24:51.785Z,98573.03
2022-10-30T21:27:18.176Z,98576.94
2022-10-30T21:29:46.193Z,98588.53
2022-10-30T21:32:13.451Z,98591.78
2022-10-30T21:34:39.774Z,98587.13
2022-10-30T21:37:06.141Z,98594.84
2022-10-30T21:39:32.488Z,98596.31
2022-10-30T21:41:58.819Z,98590.50
2022-10-30T21:44:25.184Z,98600.78
2022-10-30T21:46:51.557Z,98595.66
2022-10-30T21:49:20.555Z,98589.81
2022-10-30T21:51:49.524Z,98589.91
2022-10-30T21:54:18.903Z,98587.97
2022-10-30T21:56:45.267Z,98597.16
2022-10-30T21:59:11.937Z,98589.47
2022-10-30T22:01:38.895Z,98595.06
2022-10-30T22:04:06.051Z,98600.09
2022-10-30T22:06:32.451Z,98595.63
2022-10-30T22:08:58.806Z,98593.09
2022-10-30T22:11:26.002Z,98608.38
2022-10-30T22:13:56.001Z,98603.91
2022-10-30T22:16:22.325Z,98605.25
2022-10-30T22:18:48.686Z,98597.63
2022-10-30T22:21:15.091Z,98606.63
2022-10-30T22:23:41.881Z,98610.38
2022-10-30T22:26:10.205Z,98605.34
2022-10-30T22:28:36.630Z,98611.38
2022-10-30T22:31:02.980Z,98610.09
2022-10-30T22:33:29.402Z,98620.78
2022-10-30T22:35:55.735Z,98621.88
2022-10-30T22:38:22.075Z,98621.16
2022-10-30T22:40:48.385Z,98619.03
2022-10-30T22:43:14.759Z,98621.44
2022-10-30T22:45:41.094Z,98631.69
2022-10-30T22:48:07.422Z,98623.78
2022-10-30T22:50:33.756Z,98623.94
2022-10-30T22:53:00.085Z,98626.91
2022-10-30T22:55:27.982Z,98634.97
2022-10-30T22:57:54.420Z,98637.88
2022-10-30T23:00:24.241Z,98640.66
2022-10-30T23:02:50.584Z,98629.97
2022-10-30T23:05:16.968Z,98624.84
2022-10-30T23:07:43.302Z,98631.78
2022-10-30T23:10:09.640Z,98622.50
2022-10-30T23:12:35.993Z,98634.19
2022-10-30T23:15:02.360Z,98637.94
2022-10-30T23:17:28.842Z,98633.03
2022-10-30T23:19:55.164Z,98638.31
2022-10-30T23:22:21.515Z,98639.22
2022-10-30T23:24:47.997Z,98636.34
2022-10-30T23:27:14.325Z,98637.41
2022-10-30T23:29:40.635Z,98641.00
2022-10-30T23:32:07.313Z,98646.66
2022-10-30T23:34:33.626Z,98645.31
2022-10-30T23:37:01.867Z,98653.22
2022-10-30T23:39:29.316Z,98650.06
2022-10-30T23:41:55.974Z,98649.00
2022-10-30T23:44:22.313Z,98653.75
2022-10-30T23:46:48.651Z,98655.28
2022-10-30T23:49:14.983Z,98656.09
2022-10-30T23:51:41.332Z,98656.28
2022-10-30T23:54:07.654Z,98666.72
2022-10-30T23:56:33.977Z,98666.47
2022-10-30T23:59:00.310Z,98667.34
